Time;durP1;ratioP1;P1;durP2;ratioP2;P2;SDS_P1;SDS_P2;PMS_P1;PMS_P2;Temp;Humidity;BMP_temperature;BMP_pressure;BME280_temperature;BME280_humidity;BME280_pressure;Samples;Min_cycle;Max_cycle;Signal;HPM_P1;HPM_P2
2022/06/20 00:00:47;;;;;;;16.95;9.90;;;;;;;17.79;100.00;92595.34;2097828;28;20170;-81
2022/06/20 00:01:48;;;;;;;20.13;10.50;;;;;;;17.72;100.00;92595.72;2090636;28;20462;-81
2022/06/20 00:02:53;;;;;;;23.98;10.13;;;;;;;17.68;100.00;92603.28;2090072;28;20121;-82
2022/06/20 00:03:54;;;;;;;23.42;10.00;;;;;;;17.72;100.00;92606.53;2098153;28;20020;-81
2022/06/20 00:04:57;;;;;;;24.40;10.30;;;;;;;17.68;100.00;92601.34;2081693;28;20567;-83
2022/06/20 00:05:58;;;;;;;17.85;10.32;;;;;;;17.71;100.00;92599.66;2089981;28;20035;-82
2022/06/20 00:06:59;;;;;;;19.38;9.95;;;;;;;17.66;100.00;92605.75;2098211;28;20027;-82
2022/06/20 00:08:00;;;;;;;19.42;9.93;;;;;;;17.61;100.00;92593.66;2089929;28;20078;-82
2022/06/20 00:09:03;;;;;;;17.80;10.43;;;;;;;17.53;100.00;92606.06;2089884;28;20470;-82
2022/06/20 00:10:04;;;;;;;16.45;10.10;;;;;;;17.55;100.00;92598.97;2098031;28;20016;-82
2022/06/20 00:11:12;;;;;;;25.55;11.15;;;;;;;17.54;100.00;92602.88;2089665;28;20052;-82
2022/06/20 00:12:24;;;;;;;20.88;9.70;;;;;;;17.56;100.00;92595.06;2083746;28;20052;-82
2022/06/20 00:13:31;;;;;;;16.52;8.93;;;;;;;17.56;100.00;92605.09;2091209;28;20067;-82
2022/06/20 00:14:33;;;;;;;19.00;9.98;;;;;;;17.54;100.00;92608.28;2090254;28;20087;-82
2022/06/20 00:15:36;;;;;;;15.57;9.68;;;;;;;17.46;100.00;92603.75;2097999;28;20016;-82
2022/06/20 00:16:37;;;;;;;18.58;10.02;;;;;;;17.52;100.00;92601.88;2081790;28;20025;-81
2022/06/20 00:17:38;;;;;;;17.85;9.98;;;;;;;17.45;100.00;92602.28;2081640;28;20068;-82
2022/06/20 00:18:39;;;;;;;17.60;10.02;;;;;;;17.44;100.00;92603.50;2089760;28;20032;-81
2022/06/20 00:19:42;;;;;;;21.70;10.25;;;;;;;17.43;100.00;92607.41;2081319;28;20394;-82
2022/06/20 00:20:44;;;;;;;23.42;10.32;;;;;;;17.44;100.00;92600.78;2075313;28;20029;-82
2022/06/20 00:21:45;;;;;;;15.65;9.30;;;;;;;17.44;100.00;92598.09;2081410;28;20041;-82
2022/06/20 00:22:46;;;;;;;17.92;9.27;;;;;;;17.45;100.00;92605.72;2083217;28;20106;-81
2022/06/20 00:23:47;;;;;;;16.75;9.63;;;;;;;17.54;100.00;92608.28;2089815;28;20028;-82
2022/06/20 00:24:48;;;;;;;17.23;9.50;;;;;;;17.49;100.00;92605.53;2097972;28;20021;-83
2022/06/20 00:25:49;;;;;;;18.23;9.27;;;;;;;17.54;100.00;92596.75;2097850;28;20028;-82
2022/06/20 00:26:50;;;;;;;15.98;9.10;;;;;;;17.58;100.00;92598.03;2106357;28;20500;-82
2022/06/20 00:27:53;;;;;;;23.48;10.15;;;;;;;17.50;100.00;92591.53;2097828;28;20024;-82
2022/06/20 00:28:56;;;;;;;21.88;9.40;;;;;;;17.53;100.00;92593.31;2082078;28;20053;-82
2022/06/20 00:29:57;;;;;;;19.08;9.80;;;;;;;17.45;100.00;92592.22;2090072;28;20025;-82
2022/06/20 00:30:59;;;;;;;16.88;9.32;;;;;;;17.50;100.00;92591.53;2089424;28;20033;-83
2022/06/20 00:32:02;;;;;;;18.60;9.50;;;;;;;17.48;100.00;92587.84;2081705;28;20025;-82
2022/06/20 00:33:04;;;;;;;20.75;9.40;;;;;;;17.43;100.00;92588.47;2090378;28;20020;-82
2022/06/20 00:34:05;;;;;;;19.10;9.25;;;;;;;17.39;100.00;92588.72;2089876;28;20143;-82
2022/06/20 00:35:07;;;;;;;20.50;8.82;;;;;;;17.43;100.00;92589.25;2089720;28;20541;-82
2022/06/20 00:36:08;;;;;;;20.83;9.27;;;;;;;17.34;100.00;92590.13;2097898;28;20028;-80
2022/06/20 00:37:17;;;;;;;18.75;9.38;;;;;;;17.37;100.00;92583.00;2097887;28;20501;-80
2022/06/20 00:38:21;;;;;;;18.63;9.32;;;;;;;17.35;100.00;92591.59;2090518;28;20025;-82
2022/06/20 00:39:23;;;;;;;29.77;9.88;;;;;;;17.42;100.00;92593.16;2082239;28;20026;-82
2022/06/20 00:40:32;;;;;;;15.95;8.93;;;;;;;17.39;100.00;92580.59;2081369;28;20023;-82
2022/06/20 00:41:34;;;;;;;20.35;8.57;;;;;;;17.43;100.00;92585.78;2083690;28;20033;-82
2022/06/20 00:42:35;;;;;;;16.83;9.52;;;;;;;17.37;100.00;92583.00;2097952;28;20035;-83
2022/06/20 00:43:42;;;;;;;17.27;8.73;;;;;;;17.38;100.00;92581.78;2089676;28;20029;-82
2022/06/20 00:44:52;;;;;;;15.65;8.75;;;;;;;17.35;100.00;92582.75;2083205;28;20045;-82
2022/06/20 00:45:58;;;;;;;18.80;9.10;;;;;;;17.36;100.00;92584.25;2091869;28;20028;-82
2022/06/20 00:47:07;;;;;;;21.27;9.27;;;;;;;17.34;100.00;92587.41;2098564;28;20374;-81
2022/06/20 00:48:27;;;;;;;19.17;8.77;;;;;;;17.25;100.00;92582.16;2098994;28;20059;-81
2022/06/20 00:49:30;;;;;;;;;;;;;;;17.30;100.00;92586.13;2092499;28;20025;-82
2022/06/20 00:50:32;;;;;;;15.10;8.63;;;;;;;17.34;100.00;92589.38;2089994;28;19919;-83
2022/06/20 00:51:43;;;;;;;16.80;9.55;;;;;;;17.29;100.00;92579.22;2097629;28;20020;-81
2022/06/20 00:52:59;;;;;;;;;;;;;;;17.39;100.00;92594.09;2098284;28;20036;-82
2022/06/20 00:54:27;;;;;;;22.63;8.85;;;;;;;17.46;100.00;92587.53;2084506;28;19927;-81
2022/06/20 00:55:37;;;;;;;20.77;8.85;;;;;;;17.39;100.00;92577.91;2099169;28;20100;-81
2022/06/20 00:56:53;;;;;;;19.25;9.40;;;;;;;17.35;100.00;92582.75;2090604;28;20066;-82
2022/06/20 00:58:07;;;;;;;15.75;9.35;;;;;;;17.41;100.00;92582.81;2091503;28;20033;-81
2022/06/20 00:59:14;;;;;;;21.63;8.80;;;;;;;17.40;100.00;92584.03;2092902;28;20022;-83
2022/06/20 01:00:30;;;;;;;20.70;9.63;;;;;;;17.37;100.00;92574.91;2090195;28;20026;-82
2022/06/20 01:01:41;;;;;;;18.30;8.77;;;;;;;17.51;100.00;92576.81;2093635;28;20787;-83
2022/06/20 01:02:48;;;;;;;19.38;7.90;;;;;;;17.90;92.57;92573.84;2090695;28;20083;-83
2022/06/20 01:03:59;;;;;;;19.70;8.88;;;;;;;17.86;97.07;92573.28;2091400;28;20079;-82
2022/06/20 01:05:05;;;;;;;17.45;7.95;;;;;;;17.84;96.24;92573.03;2103240;28;20023;-81
2022/06/20 01:06:13;;;;;;;20.02;8.45;;;;;;;17.77;96.86;92571.47;2097495;28;20023;-81
2022/06/20 01:07:23;;;;;;;22.88;8.50;;;;;;;17.87;94.62;92577.50;2091449;28;20079;-82
2022/06/20 01:08:29;;;;;;;19.33;8.25;;;;;;;17.83;95.16;92571.56;2097566;28;20025;-82
2022/06/20 01:09:35;;;;;;;20.42;8.20;;;;;;;17.75;95.84;92576.63;2092278;28;20493;-82
2022/06/20 01:10:49;;;;;;;20.63;7.88;;;;;;;17.68;97.08;92574.31;2095405;28;20025;-81
2022/06/20 01:11:53;;;;;;;22.98;8.18;;;;;;;17.74;96.13;92577.13;2084645;28;20124;-82
2022/06/20 01:13:04;;;;;;;22.20;8.55;;;;;;;17.72;95.57;92582.22;2082134;28;20022;-81
2022/06/20 01:14:23;;;;;;;25.70;7.60;;;;;;;17.74;95.46;92574.41;2091433;28;20045;-83
2022/06/20 01:15:32;;;;;;;21.10;7.87;;;;;;;18.11;84.22;92579.94;2091606;28;20045;-82
2022/06/20 01:16:34;;;;;;;23.50;7.95;;;;;;;18.37;84.21;92583.41;2083652;28;20464;-82
2022/06/20 01:17:38;;;;;;;20.65;7.60;;;;;;;18.40;86.99;92575.56;2089586;28;20029;-82
2022/06/20 01:18:43;;;;;;;24.88;7.93;;;;;;;18.41;82.23;92566.97;2105894;28;20031;-83
2022/06/20 01:20:02;;;;;;;17.60;7.45;;;;;;;18.34;88.85;92570.06;2097933;28;20024;-82
2022/06/20 01:21:12;;;;;;;29.00;8.15;;;;;;;18.29;88.02;92576.19;2089485;28;20114;-81
2022/06/20 01:22:38;;;;;;;20.63;7.13;;;;;;;18.18;90.16;92568.72;2089211;28;20021;-83
2022/06/20 01:23:49;;;;;;;18.83;7.35;;;;;;;18.23;89.39;92576.16;2090766;28;20450;-83
2022/06/20 01:25:03;;;;;;;16.23;6.82;;;;;;;18.21;90.36;92577.81;2099138;28;20562;-82
2022/06/20 01:26:22;;;;;;;22.85;7.70;;;;;;;18.13;89.68;92577.53;2090881;28;20363;-83
2022/06/20 01:27:38;;;;;;;17.90;7.60;;;;;;;18.13;89.67;92574.81;2085645;28;20021;-81
2022/06/20 01:28:43;;;;;;;16.65;7.32;;;;;;;18.07;89.11;92574.75;2083274;28;20021;-82
2022/06/20 01:29:44;;;;;;;20.23;7.70;;;;;;;18.19;89.29;92574.88;2080831;28;20017;-83
2022/06/20 01:30:48;;;;;;;19.02;7.22;;;;;;;18.07;90.04;92576.72;2089308;28;20111;-81
2022/06/20 01:31:53;;;;;;;21.17;7.85;;;;;;;18.04;89.63;92577.66;2089543;28;20049;-83
2022/06/20 01:32:56;;;;;;;19.95;7.47;;;;;;;18.03;89.75;92574.22;2090380;28;20616;-82
2022/06/20 01:33:59;;;;;;;21.08;7.95;;;;;;;18.07;88.78;92582.13;2097688;28;20559;-83
2022/06/20 01:37:23;;;;;;;17.92;7.45;;;;;;;18.09;88.81;92582.41;2089646;28;20032;-83
2022/06/20 01:38:03;;;;;;;16.35;7.57;;;;;;;18.09;88.03;92588.56;2097282;28;20027;-82
2022/06/20 01:39:04;;;;;;;31.40;8.30;;;;;;;18.08;88.38;92586.31;2089571;28;20020;-82
2022/06/20 01:40:09;;;;;;;19.98;7.28;;;;;;;18.10;88.18;92590.03;2080981;28;20075;-83
2022/06/20 01:42:32;;;;;;;20.33;7.07;;;;;;;18.25;86.31;92587.22;2086511;28;20032;-82
2022/06/20 01:43:35;;;;;;;23.52;7.55;;;;;;;18.29;85.30;92584.31;2089241;28;20028;-82
2022/06/20 01:44:40;;;;;;;20.63;6.93;;;;;;;18.33;84.09;92585.56;2089290;28;20060;-82
2022/06/20 01:45:59;;;;;;;19.63;7.20;;;;;;;18.35;86.01;92585.13;2090004;28;20029;-82
2022/06/20 01:47:00;;;;;;;17.77;7.03;;;;;;;18.38;83.85;92584.88;2106039;28;20074;-82
2022/06/20 01:48:12;;;;;;;20.17;7.22;;;;;;;18.38;85.69;92578.72;2105611;28;20031;-82
2022/06/20 01:49:21;;;;;;;18.20;7.15;;;;;;;18.36;85.17;92581.19;2090784;28;20033;-82
2022/06/20 01:50:22;;;;;;;14.45;7.18;;;;;;;18.41;82.06;92577.03;2090340;28;20543;-81
2022/06/20 01:51:52;;;;;;;26.42;7.65;;;;;;;18.87;78.67;92579.63;2075077;28;20037;-82
2022/06/20 01:52:53;;;;;;;19.75;7.07;;;;;;;18.84;80.04;92578.66;2070435;28;20046;-81
2022/06/20 01:53:56;;;;;;;18.52;6.97;;;;;;;18.89;77.68;92582.63;2089101;28;20076;-81
2022/06/20 01:55:12;;;;;;;22.70;7.35;;;;;;;18.83;80.77;92579.88;2089341;28;20029;-81
2022/06/20 01:56:15;;;;;;;17.33;7.22;;;;;;;18.81;81.98;92587.72;2084709;28;20025;-82
2022/06/20 01:57:17;;;;;;;16.67;7.70;;;;;;;18.77;81.84;92589.91;2089109;28;20060;-81
2022/06/20 01:58:59;;;;;;;16.10;7.07;;;;;;;18.80;78.36;92588.22;2089207;28;20017;-81
2022/06/20 02:00:08;;;;;;;19.88;7.40;;;;;;;19.11;74.16;92588.19;2094515;28;20555;-83
2022/06/20 02:01:14;;;;;;;20.73;8.10;;;;;;;19.43;73.54;92582.69;2089946;28;20025;-81
2022/06/20 02:02:15;;;;;;;17.88;6.72;;;;;;;19.41;75.82;92587.88;2089613;28;20040;-84
2022/06/20 02:03:20;;;;;;;18.40;6.85;;;;;;;19.39;74.96;92590.31;2089021;28;20029;-82
2022/06/20 02:04:27;;;;;;;20.60;7.50;;;;;;;19.25;78.44;92581.13;2073600;28;20064;-82
2022/06/20 02:05:31;;;;;;;18.88;7.50;;;;;;;19.18;76.44;92576.13;2081208;28;20057;-82
2022/06/20 02:06:34;;;;;;;17.27;7.25;;;;;;;19.14;77.49;92581.06;2086670;28;20021;-82
2022/06/20 02:07:36;;;;;;;21.05;7.65;;;;;;;19.24;76.95;92587.03;2087492;28;20489;-82
2022/06/20 02:08:40;;;;;;;16.45;7.38;;;;;;;19.48;72.82;92587.38;2080825;28;20061;-82
2022/06/20 02:09:42;;;;;;;20.95;7.75;;;;;;;19.53;74.73;92586.66;2081012;28;20077;-83
2022/06/20 02:10:56;;;;;;;18.40;7.55;;;;;;;19.88;69.46;92585.59;2081015;28;20055;-81
2022/06/20 02:13:56;;;;;;;20.30;7.25;;;;;;;20.08;70.14;92588.16;2147971;27;20121;-86
2022/06/20 02:14:59;;;;;;;24.23;7.00;;;;;;;20.24;68.33;92586.72;2121393;28;20037;-84
2022/06/20 02:16:06;;;;;;;13.50;8.13;;;;;;;20.38;67.95;92587.72;2113088;28;20034;-82
2022/06/20 02:17:30;;;;;;;26.17;8.00;;;;;;;20.31;68.47;92588.94;2114749;27;20031;-85
2022/06/20 02:18:35;;;;;;;21.90;7.97;;;;;;;20.38;68.62;92587.72;2122198;27;20122;-83
2022/06/20 02:19:45;;;;;;;16.13;7.60;;;;;;;20.39;68.35;92589.19;2127948;27;20023;-82
2022/06/20 02:20:48;;;;;;;;;;;;;;;20.48;68.46;92589.00;2115267;28;20086;-86
2022/06/20 02:21:51;;;;;;;20.02;7.65;;;;;;;20.46;70.46;92596.88;2113180;28;19914;-85
2022/06/20 02:22:53;;;;;;;22.92;7.78;;;;;;;20.42;70.12;92593.66;2104886;28;20376;-81
2022/06/20 02:24:03;;;;;;;18.50;7.47;;;;;;;20.45;68.88;92587.22;2103274;28;20082;-82
2022/06/20 02:25:13;;;;;;;16.98;7.82;;;;;;;20.66;67.90;92589.75;2114309;28;20445;-84
2022/06/20 02:26:17;;;;;;;20.77;7.70;;;;;;;21.27;63.62;92584.25;2112586;28;20024;-83
2022/06/20 02:27:32;;;;;;;20.70;8.05;;;;;;;21.17;65.57;92593.19;2112733;28;20491;-85
2022/06/20 02:28:48;;;;;;;16.20;7.32;;;;;;;21.31;63.68;92597.59;2114680;28;20485;-86
2022/06/20 02:29:49;;;;;;;16.70;7.50;;;;;;;21.61;62.60;92589.66;2115019;28;20028;-84
2022/06/20 02:30:51;;;;;;;16.27;7.32;;;;;;;21.55;63.10;92594.34;2104312;28;20397;-83
2022/06/20 02:32:17;;;;;;;24.13;8.02;;;;;;;21.48;65.22;92592.91;2112929;27;20028;-85
2022/06/20 02:33:25;;;;;;;20.00;8.40;;;;;;;21.55;63.12;92595.09;2116172;28;20472;-84
2022/06/20 02:34:29;;;;;;;16.88;7.75;;;;;;;21.94;60.12;92588.78;2105491;28;20032;-85
2022/06/20 02:35:31;;;;;;;14.32;7.10;;;;;;;22.11;59.87;92592.16;2096721;28;20469;-82
2022/06/20 02:36:32;;;;;;;18.45;7.57;;;;;;;22.08;59.25;92590.47;2104671;28;20028;-85
2022/06/20 02:37:34;;;;;;;24.42;7.85;;;;;;;22.40;57.51;92583.88;2121228;28;20023;-83
2022/06/20 02:38:52;;;;;;;18.58;7.70;;;;;;;22.29;58.59;92596.28;2121196;28;20098;-85
2022/06/20 02:40:00;;;;;;;21.02;7.10;;;;;;;22.63;55.46;92601.53;2109020;28;20798;-84
2022/06/20 02:41:01;;;;;;;17.48;7.40;;;;;;;22.92;53.96;92600.13;2113756;28;20345;-82
2022/06/20 02:42:08;;;;;;;16.52;7.63;;;;;;;22.75;55.35;92594.78;2104381;28;20031;-83
2022/06/20 02:43:24;;;;;;;20.15;7.15;;;;;;;22.71;55.02;92593.56;2105967;28;20494;-84
2022/06/20 02:44:26;;;;;;;16.25;6.47;;;;;;;22.69;55.76;92593.31;2114933;28;20080;-80
2022/06/20 02:45:30;;;;;;;20.55;7.47;;;;;;;22.70;55.50;92603.75;2104037;28;20020;-85
2022/06/20 02:46:31;;;;;;;20.05;7.35;;;;;;;22.50;56.74;92593.22;2110442;27;20449;-84
2022/06/20 02:47:37;;;;;;;16.92;7.63;;;;;;;22.35;57.84;92597.03;2118399;28;20071;-85
2022/06/20 02:48:43;;;;;;;16.42;6.90;;;;;;;22.48;55.26;92591.00;2113250;28;20020;-84
2022/06/20 02:49:46;;;;;;;17.55;6.97;;;;;;;22.78;54.20;92593.75;2104999;28;20024;-83
2022/06/20 02:50:53;;;;;;;14.57;6.95;;;;;;;22.65;55.01;92590.88;2111440;27;20480;-83
2022/06/20 02:51:57;;;;;;;19.30;6.95;;;;;;;22.53;56.82;92589.50;2130037;27;20027;-86
2022/06/20 02:53:24;;;;;;;17.13;6.53;;;;;;;22.55;55.30;92598.63;2120840;28;20027;-83
2022/06/20 02:54:29;;;;;;;13.73;6.10;;;;;;;22.78;51.82;92601.91;2107678;28;20028;-84
2022/06/20 02:55:34;;;;;;;17.10;5.88;;;;;;;22.96;50.71;92600.59;2102272;28;20051;-85
2022/06/20 02:56:43;;;;;;;18.73;6.38;;;;;;;22.95;50.66;92599.09;2112998;28;20065;-85
2022/06/20 02:57:50;;;;;;;25.02;6.15;;;;;;;22.63;52.39;92602.28;2105347;28;20024;-86
2022/06/20 02:58:55;;;;;;;11.15;5.05;;;;;;;22.68;52.26;92597.31;2113412;28;20107;-83
2022/06/20 03:00:13;;;;;;;14.68;5.68;;;;;;;22.68;50.50;92603.50;2104802;28;20074;-85
2022/06/20 03:01:37;;;;;;;15.65;5.45;;;;;;;22.57;52.56;92593.41;2100110;28;20517;-84
2022/06/20 03:02:42;;;;;;;24.50;6.43;;;;;;;22.63;51.00;92599.56;2108751;28;20027;-85
2022/06/20 03:03:48;;;;;;;15.63;5.80;;;;;;;22.63;49.54;92607.00;2113531;27;20464;-83
2022/06/20 03:04:50;;;;;;;16.88;4.30;;;;;;;22.62;48.81;92600.06;2113338;28;20020;-82
2022/06/20 03:05:51;;;;;;;20.15;4.75;;;;;;;22.55;49.11;92598.63;2112393;28;20059;-81
2022/06/20 03:06:56;;;;;;;17.38;5.03;;;;;;;22.62;48.66;92613.69;2103996;28;20074;-83
2022/06/20 03:07:57;;;;;;;16.63;5.05;;;;;;;22.90;46.99;92605.34;2113873;27;20055;-87
2022/06/20 03:09:00;;;;;;;15.00;4.55;;;;;;;22.92;46.81;92613.75;2112472;28;20044;-84
2022/06/20 03:10:22;;;;;;;22.17;4.45;;;;;;;22.77;47.53;92618.78;2104509;27;20039;-86
2022/06/20 03:11:27;;;;;;;16.40;4.45;;;;;;;22.97;46.49;92626.59;2115536;28;20020;-83
2022/06/20 03:12:31;;;;;;;16.85;4.60;;;;;;;22.82;46.89;92621.47;2104766;28;20462;-83
2022/06/20 03:13:36;;;;;;;17.88;5.05;;;;;;;22.75;47.95;92627.47;2096308;28;20563;-84
2022/06/20 03:14:50;;;;;;;17.48;4.20;;;;;;;22.92;46.84;92629.38;2105286;28;20051;-84
2022/06/20 03:15:52;;;;;;;22.52;5.50;;;;;;;22.98;46.33;92622.63;2114333;28;20468;-85
2022/06/20 03:16:54;;;;;;;15.77;4.57;;;;;;;22.88;46.85;92616.00;2112679;28;20027;-81
2022/06/20 03:17:57;;;;;;;13.95;4.50;;;;;;;22.91;46.84;92628.63;2104236;28;20076;-82
2022/06/20 03:19:01;;;;;;;23.25;4.78;;;;;;;22.89;47.17;92636.53;2096251;28;20032;-80
2022/06/20 03:20:08;;;;;;;27.05;5.03;;;;;;;22.82;47.65;92618.00;2096335;28;20075;-85
2022/06/20 03:21:13;;;;;;;10.23;4.55;;;;;;;22.88;47.42;92627.63;2094166;28;20033;-84
2022/06/20 03:22:19;;;;;;;18.23;5.03;;;;;;;22.81;47.54;92620.00;2096507;28;20070;-82
2022/06/20 03:23:32;;;;;;;15.60;4.40;;;;;;;22.70;48.10;92619.34;2108771;28;20020;-84
2022/06/20 03:24:34;;;;;;;16.42;4.78;;;;;;;22.78;47.79;92628.44;2112675;28;20164;-82
2022/06/20 03:25:40;;;;;;;14.25;4.35;;;;;;;22.84;47.07;92629.16;2106778;28;20020;-85
2022/06/20 03:26:41;;;;;;;13.30;5.30;;;;;;;22.84;47.71;92626.44;2107450;28;20027;-85
2022/06/20 03:27:43;;;;;;;14.15;4.70;;;;;;;22.89;47.40;92636.53;2098490;28;20523;-83
2022/06/20 03:28:45;;;;;;;14.80;4.47;;;;;;;22.87;47.34;92636.28;2098646;28;20028;-82
2022/06/20 03:29:51;;;;;;;14.23;4.75;;;;;;;22.71;48.47;92634.44;2098510;28;20024;-83
2022/06/20 03:30:52;;;;;;;17.98;4.45;;;;;;;22.75;47.77;92654.72;2091534;28;20531;-82
2022/06/20 03:31:55;;;;;;;16.65;5.40;;;;;;;22.67;49.01;92636.69;2090245;28;20059;-82
2022/06/20 03:32:58;;;;;;;16.80;4.90;;;;;;;22.56;50.13;92670.94;2106073;27;20028;-84
2022/06/20 03:33:59;;;;;;;14.00;5.22;;;;;;;22.61;49.84;92653.09;2107139;28;20027;-83
2022/06/20 03:35:00;;;;;;;13.93;4.63;;;;;;;22.53;49.85;92652.88;2098419;28;20021;-82
2022/06/20 03:36:11;;;;;;;18.05;4.35;;;;;;;22.52;50.73;92647.91;2098509;28;20027;-80
2022/06/20 03:37:12;;;;;;;;;;;;;;;22.21;56.64;92666.13;2106870;28;20024;-85
2022/06/20 03:38:15;;;;;;;18.85;4.97;;;;;;;21.72;66.95;92665.78;2098359;28;19908;-82
2022/06/20 03:39:18;;;;;;;17.08;5.53;;;;;;;21.12;75.83;92674.25;2107294;28;20024;-85
2022/06/20 03:40:20;;;;;;;22.77;5.88;;;;;;;20.46;76.30;92702.75;2098776;28;20028;-85
2022/06/20 03:41:25;;;;;;;19.08;5.75;;;;;;;20.17;82.84;92684.13;2106585;28;20028;-83
2022/06/20 03:42:27;;;;;;;14.25;5.72;;;;;;;19.92;86.42;92688.47;2099375;28;20119;-85
2022/06/20 03:43:28;;;;;;;14.02;5.18;;;;;;;19.69;86.82;92682.94;2098436;28;20028;-84
2022/06/20 03:44:44;;;;;;;14.15;5.35;;;;;;;19.58;86.46;92682.84;2098514;28;20044;-82
2022/06/20 03:46:00;;;;;;;15.88;5.90;;;;;;;19.55;82.50;92681.09;2094251;28;20462;-84
2022/06/20 03:47:07;;;;;;;15.38;5.60;;;;;;;19.40;86.21;92680.50;2094609;28;20032;-85
2022/06/20 03:48:14;;;;;;;12.43;5.50;;;;;;;19.56;78.23;92669.00;2091365;28;20025;-82
2022/06/20 03:49:22;;;;;;;13.18;5.68;;;;;;;19.66;81.26;92662.19;2091921;28;20040;-85
2022/06/20 03:50:37;;;;;;;13.20;5.50;;;;;;;19.50;85.81;92660.13;2107601;28;20020;-86
2022/06/20 03:51:57;;;;;;;13.70;4.90;;;;;;;19.69;78.40;92657.78;2100235;28;20025;-83
2022/06/20 03:53:16;;;;;;;12.23;5.30;;;;;;;19.77;75.89;92659.56;2095084;28;20381;-86
2022/06/20 03:54:28;;;;;;;12.95;5.25;;;;;;;19.93;77.99;92651.97;2103288;28;20559;-82
2022/06/20 03:55:42;;;;;;;18.10;5.50;;;;;;;19.90;72.77;92650.97;2093907;28;20490;-87
2022/06/20 03:56:57;;;;;;;11.77;4.72;;;;;;;20.01;73.71;92651.00;2106677;28;20024;-85
2022/06/20 03:58:07;;;;;;;13.95;5.10;;;;;;;20.19;72.32;92649.09;2093447;28;20024;-87
2022/06/20 03:59:16;;;;;;;15.35;5.72;;;;;;;19.98;77.49;92649.28;2096405;28;20020;-85
2022/06/20 04:00:23;;;;;;;14.95;5.10;;;;;;;20.17;72.92;92644.16;2092064;28;20031;-85
2022/06/20 04:02:05;;;;;;;15.02;5.22;;;;;;;20.11;75.64;92644.16;2091651;28;20655;-84
2022/06/20 04:03:30;;;;;;;11.80;4.82;;;;;;;20.22;72.09;92642.69;2109728;28;20038;-85
2022/06/20 04:04:56;;;;;;;12.93;5.95;;;;;;;20.05;76.73;92645.34;2103075;28;20188;-84
2022/06/20 04:06:06;;;;;;;14.77;5.38;;;;;;;19.97;73.75;92650.50;2113532;27;20023;-86
2022/06/20 04:07:14;;;;;;;9.18;4.75;;;;;;;20.09;75.99;92643.16;2106391;28;20032;-84
2022/06/20 04:11:55;;;;;;;11.77;5.30;;;;;;;20.34;70.49;92657.81;2111214;28;20027;-84
2022/06/20 04:13:20;;;;;;;10.75;5.20;;;;;;;20.40;70.20;92649.66;2104874;28;20023;-87
2022/06/20 04:14:28;;;;;;;10.50;4.97;;;;;;;20.13;77.57;92649.81;2118040;27;20088;-85
2022/06/20 04:15:48;;;;;;;12.05;4.78;;;;;;;20.44;68.28;92664.47;2114763;28;20497;-83
2022/06/20 04:16:59;;;;;;;11.65;5.05;;;;;;;20.45;68.41;92665.22;2103313;28;20485;-85
2022/06/20 04:18:31;;;;;;;12.63;4.78;;;;;;;20.70;64.46;92661.59;2109579;27;20032;-86
2022/06/20 04:19:39;;;;;;;11.57;5.25;;;;;;;20.61;70.27;92657.13;2108893;28;20118;-84
2022/06/20 04:20:49;;;;;;;12.23;4.90;;;;;;;20.81;62.19;92660.88;2100098;28;20028;-84
2022/06/20 04:21:56;;;;;;;8.65;4.60;;;;;;;20.87;62.90;92659.66;2107938;28;20030;-87
2022/06/20 04:22:58;;;;;;;18.60;5.50;;;;;;;20.83;63.61;92669.28;2107094;28;20194;-84
2022/06/20 04:24:11;;;;;;;13.73;5.30;;;;;;;20.75;65.01;92662.84;2098269;28;20149;-83
2022/06/20 04:25:18;;;;;;;12.35;5.10;;;;;;;20.80;64.68;92681.13;2092559;28;20413;-87
2022/06/20 04:26:40;;;;;;;9.95;4.90;;;;;;;20.86;61.71;92671.00;2105853;28;20072;-86
2022/06/20 04:27:48;;;;;;;12.80;5.22;;;;;;;20.79;62.89;92674.94;2100962;28;20020;-86
2022/06/20 04:29:10;;;;;;;9.90;4.90;;;;;;;20.92;61.18;92666.31;2091759;28;20204;-83
2022/06/20 04:30:24;;;;;;;14.25;5.50;;;;;;;20.88;63.36;92654.94;2100370;28;20039;-83
2022/06/20 04:31:28;;;;;;;13.32;4.90;;;;;;;21.01;60.53;92660.63;2101967;28;20413;-86
2022/06/20 04:32:47;;;;;;;18.27;10.40;;;;;;;21.12;59.58;92651.75;2098475;28;20062;-84
2022/06/20 04:34:18;;;;;;;14.05;5.55;;;;;;;21.13;60.09;92651.25;2100889;28;20469;-82
2022/06/20 04:35:39;;;;;;;11.80;5.03;;;;;;;21.03;63.17;92660.91;2105423;28;20119;-84
2022/06/20 04:36:56;;;;;;;14.07;5.38;;;;;;;21.11;60.82;92639.38;2099652;28;20020;-84
2022/06/20 04:38:10;;;;;;;11.38;4.57;;;;;;;20.99;61.91;92644.09;2102812;28;20024;-82
2022/06/20 04:39:24;;;;;;;11.57;4.90;;;;;;;21.12;59.88;92640.88;2099660;28;20104;-86
2022/06/20 04:40:31;;;;;;;13.88;5.18;;;;;;;20.83;63.40;92628.53;2101439;28;20115;-85
2022/06/20 04:41:40;;;;;;;8.85;4.63;;;;;;;20.67;65.33;92624.56;2106014;28;20050;-82
2022/06/20 04:42:57;;;;;;;12.43;5.03;;;;;;;20.71;66.39;92633.19;2098851;28;20036;-84
2022/06/20 04:44:05;;;;;;;13.10;5.45;;;;;;;20.78;62.64;92626.56;2108495;28;20073;-82
2022/06/20 04:45:34;;;;;;;10.30;4.65;;;;;;;20.68;63.27;92631.47;2105848;28;20033;-83
2022/06/20 04:47:03;;;;;;;13.18;4.82;;;;;;;20.73;65.57;92646.31;2100085;28;20032;-83
2022/06/20 04:48:19;;;;;;;8.05;4.50;;;;;;;20.79;63.16;92641.59;2109975;28;20027;-83
2022/06/20 04:49:20;;;;;;;13.77;5.80;;;;;;;20.74;63.64;92647.78;2101985;28;20032;-85
2022/06/20 04:50:32;;;;;;;14.80;5.47;;;;;;;20.81;62.16;92650.75;2106137;28;20016;-82
2022/06/20 04:51:38;;;;;;;11.35;4.57;;;;;;;20.92;60.28;92652.72;2108620;27;20491;-85
2022/06/20 04:52:40;;;;;;;11.85;5.68;;;;;;;20.88;61.30;92650.25;2122071;27;20369;-84
2022/06/20 04:53:43;;;;;;;17.45;5.78;;;;;;;20.95;62.42;92648.28;2105780;28;20503;-85
2022/06/20 04:54:44;;;;;;;9.05;4.72;;;;;;;20.91;65.02;92653.22;2094182;28;20033;-83
2022/06/20 04:55:49;;;;;;;11.88;5.00;;;;;;;20.90;62.56;92651.75;2105463;28;20024;-82
2022/06/20 04:56:53;;;;;;;13.45;5.88;;;;;;;20.80;62.14;92648.53;2097993;28;20031;-84
2022/06/20 04:57:58;;;;;;;11.98;4.90;;;;;;;20.91;61.37;92647.81;2092136;28;20025;-82
2022/06/20 04:59:06;;;;;;;8.25;4.85;;;;;;;20.95;61.67;92653.72;2098802;28;20029;-84
2022/06/20 05:00:17;;;;;;;10.00;4.57;;;;;;;20.99;61.24;92654.97;2098851;28;20028;-84
2022/06/20 05:01:20;;;;;;;11.07;5.47;;;;;;;20.96;62.76;92655.94;2092163;28;20033;-82
2022/06/20 05:02:24;;;;;;;11.63;4.68;;;;;;;20.79;63.41;92650.50;2089915;28;20028;-84
2022/06/20 05:03:30;;;;;;;10.43;4.90;;;;;;;20.78;63.99;92673.47;2098409;28;20023;-86
2022/06/20 05:04:38;;;;;;;11.30;4.70;;;;;;;20.86;62.53;92668.28;2105891;28;20020;-83
2022/06/20 05:05:43;;;;;;;12.68;5.07;;;;;;;20.84;63.53;92668.03;2091150;28;20031;-82
2022/06/20 05:06:45;;;;;;;15.98;5.30;;;;;;;20.96;61.71;92671.50;2105647;28;20019;-84
2022/06/20 05:07:48;;;;;;;8.18;4.43;;;;;;;20.94;61.86;92663.88;2105723;28;20507;-85
2022/06/20 05:08:55;;;;;;;7.95;4.95;;;;;;;20.92;62.51;92666.31;2097926;28;20052;-87
2022/06/20 05:10:01;;;;;;;18.13;5.38;;;;;;;21.05;61.15;92674.72;2094830;28;20035;-84
2022/06/20 05:11:06;;;;;;;12.52;5.35;;;;;;;21.01;63.02;92673.47;2104907;28;20047;-86
2022/06/20 05:12:26;;;;;;;11.82;5.05;;;;;;;20.95;61.95;92670.03;2114669;28;20106;-86
2022/06/20 05:13:36;;;;;;;10.82;5.20;;;;;;;20.88;62.24;92668.53;2114978;27;20047;-85
2022/06/20 05:14:47;;;;;;;10.48;5.10;;;;;;;20.91;65.39;92669.53;2112146;28;20027;-83
2022/06/20 05:15:50;;;;;;;12.07;5.40;;;;;;;20.81;63.33;92680.66;2098903;28;20028;-83
2022/06/20 05:16:54;;;;;;;12.30;4.45;;;;;;;20.79;65.24;92682.34;2097589;28;20047;-83
2022/06/20 05:17:56;;;;;;;10.75;5.60;;;;;;;20.82;62.43;92681.38;2092720;28;20024;-84
2022/06/20 05:19:02;;;;;;;11.00;5.25;;;;;;;20.98;60.60;92675.19;2097948;28;20086;-84
2022/06/20 05:20:17;;;;;;;11.20;5.05;;;;;;;20.87;61.78;92675.22;2099028;28;20025;-86
2022/06/20 05:21:26;;;;;;;13.02;4.95;;;;;;;20.94;60.94;92672.00;2114066;27;20023;-84
2022/06/20 05:22:33;;;;;;;6.88;4.45;;;;;;;21.03;59.79;92671.78;2110974;28;20028;-83
2022/06/20 05:23:42;;;;;;;15.45;5.40;;;;;;;20.88;62.95;92671.25;2105807;28;20515;-85
2022/06/20 05:24:45;;;;;;;12.05;5.20;;;;;;;20.84;63.99;92665.31;2114282;28;20038;-83